To NAV CANADA Home Page Login to a new session Search on AWWS site Feedback and Comments Disclaimer Vers la page française équivalente Tips FAQ What's new on the site To the Forecasts and Observations / NOTAM section To "File a Flight Plan" website Publications and other links Update of the User's profile FIC Telephone Numbers My Weather Data Folder Route Weather Data Regional Weather Data Local Weather Data To the Forecasts and Observations / NOTAM section
Request Generated 12/10/2016 at 16:30:28 UTC . Weather information available at that time is displayed.

METAR/TAF

KUUJJUAQ/QC    

METAR CYVP 101600Z 29013G23KT 15SM FEW040 SCT080 M15/M19 A2990 RMK
SC2AC1 SLP132=
METAR CYVP 101500Z 29015G23KT 15SM DRSN FEW040 FEW080 M15/M19 A2991
RMK SC2AC1 AC TR SLP133=
METAR CYVP 101400Z 30015G24KT 15SM DRSN SCT040 M15/M19 A2991 RMK SC4
SLP135=

TAF CYVP 101141Z 1012/1024 31012G22KT P6SM -SHSN OVC040
FM101800 29012G22KT P6SM SCT040
RMK NXT FCST BY 101800Z=
Your time UTC time
Weather data provided by Environment Canada and NAV CANADA